createdAt,value
2018-08-31T00:00:01.582Z,91.83
2018-08-31T00:01:01.508Z,91.88
2018-08-31T00:02:01.426Z,89.74
2018-08-31T00:03:01.349Z,90.45
2018-08-31T00:04:22.251Z,90.07
2018-08-31T00:05:01.199Z,89.40
2018-08-31T00:06:01.110Z,89.21
2018-08-31T00:07:01.044Z,89.69
2018-08-31T00:08:00.953Z,90.17
2018-08-31T00:09:00.887Z,90.26
2018-08-31T00:10:21.784Z,91.12
2018-08-31T00:11:00.734Z,91.78
2018-08-31T00:12:00.647Z,89.40
2018-08-31T00:13:00.581Z,89.31
2018-08-31T00:14:00.497Z,88.35
2018-08-31T00:15:00.429Z,89.31
2018-08-31T00:16:21.323Z,89.93
2018-08-31T00:17:00.271Z,90.59
2018-08-31T00:18:00.191Z,90.41
2018-08-31T00:19:00.114Z,90.07
2018-08-31T00:20:00.036Z,89.54
2018-08-31T00:20:59.968Z,89.17
2018-08-31T00:22:20.867Z,89.07
2018-08-31T00:22:59.811Z,90.12
2018-08-31T00:23:59.729Z,90.41
2018-08-31T00:24:59.661Z,91.07
2018-08-31T00:25:59.570Z,91.36
2018-08-31T00:26:59.511Z,91.27
2018-08-31T00:28:20.401Z,91.27
2018-08-31T00:28:59.358Z,91.83
2018-08-31T00:29:59.264Z,91.93
2018-08-31T00:30:59.194Z,91.93
2018-08-31T00:31:59.110Z,92.50
2018-08-31T00:32:59.064Z,92.22
2018-08-31T00:34:19.938Z,92.50
2018-08-31T00:34:58.892Z,93.27
2018-08-31T00:35:58.802Z,93.74
2018-08-31T00:36:58.731Z,93.55
2018-08-31T00:37:58.652Z,94.32
2018-08-31T00:38:58.596Z,94.60
2018-08-31T00:40:19.474Z,94.51
2018-08-31T00:40:58.428Z,94.79
2018-08-31T00:41:58.345Z,94.60
2018-08-31T00:42:58.276Z,94.60
2018-08-31T00:43:58.189Z,94.41
2018-08-31T00:44:58.123Z,94.70
2018-08-31T00:46:19.020Z,94.41
2018-08-31T00:46:57.964Z,94.51
2018-08-31T00:47:57.883Z,94.89
2018-08-31T00:48:57.816Z,94.70
2018-08-31T00:49:57.724Z,94.60
2018-08-31T00:50:57.654Z,94.89
2018-08-31T00:52:18.551Z,95.84
2018-08-31T00:52:57.511Z,95.46
2018-08-31T00:53:57.423Z,95.46
2018-08-31T00:54:57.399Z,95.84
2018-08-31T00:55:57.263Z,96.32
2018-08-31T00:56:57.193Z,96.89
2018-08-31T00:58:18.091Z,96.89
2018-08-31T00:58:57.042Z,96.89
2018-08-31T00:59:56.954Z,97.46
2018-08-31T01:00:56.886Z,97.56
2018-08-31T01:01:56.807Z,97.66
2018-08-31T01:02:56.728Z,97.27
2018-08-31T01:04:17.631Z,96.80
2018-08-31T01:04:56.579Z,96.80
2018-08-31T01:05:56.501Z,97.17
2018-08-31T01:06:56.421Z,97.46
2018-08-31T01:07:56.342Z,97.66
2018-08-31T01:08:56.264Z,97.27
2018-08-31T01:10:17.168Z,96.51
2018-08-31T01:10:56.122Z,96.37
2018-08-31T01:11:56.038Z,96.13
2018-08-31T01:12:55.963Z,95.84
2018-08-31T01:13:55.878Z,95.08
2018-08-31T01:14:55.810Z,93.46
2018-08-31T01:16:16.704Z,92.32
2018-08-31T01:16:55.652Z,91.27
2018-08-31T01:17:55.572Z,91.46
2018-08-31T01:18:55.509Z,92.12
2018-08-31T01:19:55.415Z,92.88
2018-08-31T01:20:55.345Z,93.46
2018-08-31T01:22:16.248Z,94.60
2018-08-31T01:22:55.188Z,95.75
2018-08-31T01:23:55.112Z,96.70
2018-08-31T01:24:55.047Z,97.37
2018-08-31T01:25:54.961Z,98.22
2018-08-31T01:26:54.885Z,98.99
2018-08-31T01:28:15.783Z,99.37
2018-08-31T01:28:54.733Z,98.80
2018-08-31T01:29:54.652Z,98.99
2018-08-31T01:30:54.576Z,98.80
2018-08-31T01:31:54.486Z,98.99
2018-08-31T01:32:54.417Z,97.94
2018-08-31T01:34:15.319Z,98.22
2018-08-31T01:34:54.278Z,97.08
2018-08-31T01:35:54.182Z,96.51
2018-08-31T01:36:54.115Z,94.41
2018-08-31T01:37:54.034Z,92.32
2018-08-31T01:38:53.953Z,90.22
2018-08-31T01:40:14.854Z,89.54
2018-08-31T01:40:53.818Z,89.50
2018-08-31T01:41:53.716Z,89.79
2018-08-31T01:42:53.658Z,89.89
2018-08-31T01:43:53.568Z,90.64
2018-08-31T01:44:53.500Z,90.84
2018-08-31T01:46:14.392Z,92.08
2018-08-31T01:46:53.346Z,93.12
2018-08-31T01:47:53.254Z,93.51
2018-08-31T01:48:53.183Z,94.27
2018-08-31T01:49:53.107Z,94.17
2018-08-31T01:50:53.038Z,94.46
2018-08-31T01:52:13.931Z,94.08
2018-08-31T01:52:52.966Z,94.27
2018-08-31T01:53:52.798Z,94.84
2018-08-31T01:54:52.734Z,95.03
2018-08-31T01:55:52.642Z,95.56
2018-08-31T01:56:52.575Z,95.75
2018-08-31T01:58:13.477Z,95.17
2018-08-31T01:58:52.414Z,94.98
2018-08-31T01:59:52.345Z,94.51
2018-08-31T02:00:52.270Z,94.22
2018-08-31T02:01:52.177Z,93.84
2018-08-31T02:02:52.115Z,92.88
2018-08-31T02:04:13.092Z,92.41
2018-08-31T02:04:51.951Z,92.50
2018-08-31T02:05:51.877Z,92.74
2018-08-31T02:06:51.813Z,93.51
2018-08-31T02:07:51.720Z,94.37
2018-08-31T02:08:51.645Z,94.56
2018-08-31T02:10:12.547Z,95.03
2018-08-31T02:10:51.490Z,95.41
2018-08-31T02:11:51.412Z,95.41
2018-08-31T02:12:51.337Z,95.03
2018-08-31T02:13:51.253Z,94.74
2018-08-31T02:14:51.181Z,95.32
2018-08-31T02:16:12.083Z,95.75
2018-08-31T02:16:51.024Z,95.41
2018-08-31T02:17:50.947Z,95.41
2018-08-31T02:18:50.875Z,94.37
2018-08-31T02:19:50.788Z,94.56
2018-08-31T02:20:50.716Z,95.61
2018-08-31T02:22:11.617Z,96.17
2018-08-31T02:22:50.560Z,96.94
2018-08-31T02:23:50.483Z,98.36
2018-08-31T02:24:50.411Z,98.18
2018-08-31T02:25:50.323Z,98.65
2018-08-31T02:26:50.256Z,99.41
2018-08-31T02:28:11.144Z,99.99
2018-08-31T02:28:50.101Z,99.99
2018-08-31T02:29:50.023Z,99.99
2018-08-31T02:30:49.951Z,99.99
2018-08-31T02:31:49.864Z,99.99
2018-08-31T02:32:49.789Z,99.99
2018-08-31T02:34:10.690Z,99.99
2018-08-31T02:34:49.631Z,99.99
2018-08-31T02:35:49.551Z,99.99
2018-08-31T02:36:49.483Z,99.99
2018-08-31T02:37:49.400Z,99.99
2018-08-31T02:38:49.325Z,99.70
2018-08-31T02:40:10.229Z,99.22
2018-08-31T02:40:49.171Z,97.80
2018-08-31T02:41:49.090Z,97.03
2018-08-31T02:42:49.019Z,96.36
2018-08-31T02:43:48.935Z,97.51
2018-08-31T02:44:48.862Z,98.94
2018-08-31T02:46:09.767Z,99.13
2018-08-31T02:46:48.703Z,99.13
2018-08-31T02:47:48.628Z,99.80
2018-08-31T02:48:48.558Z,99.51
2018-08-31T02:49:48.466Z,99.60
2018-08-31T02:50:48.397Z,98.85
2018-08-31T02:52:09.301Z,98.94
2018-08-31T02:52:48.253Z,98.46
2018-08-31T02:53:48.170Z,98.94
2018-08-31T02:54:48.091Z,97.99
2018-08-31T02:55:48.008Z,97.51
2018-08-31T02:56:47.934Z,96.36
2018-08-31T02:58:08.836Z,97.03
2018-08-31T02:58:47.788Z,96.17
2018-08-31T02:59:47.696Z,96.46
2018-08-31T03:00:47.627Z,97.08
2018-08-31T03:01:47.538Z,96.84
2018-08-31T03:02:47.471Z,96.84
2018-08-31T03:04:08.374Z,97.32
2018-08-31T03:04:47.331Z,97.41
2018-08-31T03:05:47.232Z,97.13
2018-08-31T03:06:47.166Z,95.22
2018-08-31T03:07:47.100Z,93.79
2018-08-31T03:08:47.009Z,93.22
2018-08-31T03:10:07.911Z,91.98
2018-08-31T03:10:46.860Z,91.69
2018-08-31T03:11:46.772Z,91.98
2018-08-31T03:12:46.703Z,93.03
2018-08-31T03:13:46.613Z,94.27
2018-08-31T03:14:46.544Z,94.27
2018-08-31T03:16:07.444Z,94.65
2018-08-31T03:16:46.386Z,94.65
2018-08-31T03:17:46.311Z,95.12
2018-08-31T03:18:46.237Z,95.61
2018-08-31T03:19:46.146Z,95.51
2018-08-31T03:20:46.077Z,95.41
2018-08-31T03:22:06.979Z,96.46
2018-08-31T03:22:45.935Z,97.46
2018-08-31T03:23:45.841Z,98.18
2018-08-31T03:24:45.774Z,98.75
2018-08-31T03:25:45.686Z,98.75
2018-08-31T03:26:45.614Z,99.99
2018-08-31T03:28:06.515Z,99.99
2018-08-31T03:28:45.466Z,99.99
2018-08-31T03:29:45.380Z,99.99
2018-08-31T03:30:45.309Z,99.99
2018-08-31T03:31:45.219Z,99.99
2018-08-31T03:32:45.149Z,99.99
2018-08-31T03:34:06.052Z,99.99
2018-08-31T03:34:44.992Z,99.99
2018-08-31T03:35:44.916Z,99.99
2018-08-31T03:36:44.851Z,99.99
2018-08-31T03:37:44.757Z,99.04
2018-08-31T03:38:44.687Z,98.27
2018-08-31T03:40:05.587Z,98.18
2018-08-31T03:40:44.528Z,96.65
2018-08-31T03:41:44.452Z,97.61
2018-08-31T03:42:44.381Z,97.61
2018-08-31T03:43:44.290Z,97.70
2018-08-31T03:44:44.224Z,98.18
2018-08-31T03:46:05.123Z,98.08
2018-08-31T03:46:44.069Z,98.65
2018-08-31T03:47:43.984Z,98.75
2018-08-31T03:48:43.920Z,98.85
2018-08-31T03:49:43.828Z,97.70
2018-08-31T03:50:43.764Z,98.94
2018-08-31T03:52:04.655Z,99.51
2018-08-31T03:52:43.606Z,99.99
2018-08-31T03:53:43.524Z,99.99
2018-08-31T03:54:43.458Z,99.99
2018-08-31T03:55:43.363Z,99.99
2018-08-31T03:56:43.299Z,99.99
2018-08-31T03:58:04.185Z,99.99
2018-08-31T03:58:43.151Z,99.99
2018-08-31T03:59:43.047Z,99.99
2018-08-31T04:00:42.988Z,99.99
2018-08-31T04:01:42.905Z,99.99
2018-08-31T04:02:42.831Z,99.99
2018-08-31T04:04:03.724Z,99.99
2018-08-31T04:04:42.685Z,99.99
2018-08-31T04:05:42.597Z,99.99
2018-08-31T04:06:42.526Z,99.99
2018-08-31T04:07:42.436Z,99.80
2018-08-31T04:08:42.368Z,97.22
2018-08-31T04:10:03.256Z,97.22
2018-08-31T04:10:42.207Z,98.18
2018-08-31T04:11:42.129Z,99.04
2018-08-31T04:12:42.063Z,98.56
2018-08-31T04:13:41.970Z,98.85
2018-08-31T04:14:41.895Z,99.13
2018-08-31T04:16:02.805Z,98.75
2018-08-31T04:16:41.806Z,97.99
2018-08-31T04:17:41.665Z,96.46
2018-08-31T04:18:41.575Z,94.27
2018-08-31T04:19:41.507Z,94.79
2018-08-31T04:20:41.495Z,95.36
2018-08-31T04:22:02.345Z,95.65
2018-08-31T04:22:41.279Z,96.70
2018-08-31T04:23:41.291Z,98.03
2018-08-31T04:24:41.117Z,99.46
2018-08-31T04:25:41.108Z,99.94
2018-08-31T04:26:40.964Z,99.99
2018-08-31T04:28:01.899Z,99.99
2018-08-31T04:28:40.807Z,99.99
2018-08-31T04:29:40.747Z,99.99
2018-08-31T04:30:40.763Z,99.99
2018-08-31T04:31:40.629Z,99.99
2018-08-31T04:32:40.494Z,99.99
2018-08-31T04:34:01.476Z,99.99
2018-08-31T04:34:40.371Z,99.18
2018-08-31T04:35:40.344Z,97.94
2018-08-31T04:36:40.188Z,97.75
2018-08-31T04:37:40.155Z,95.94
2018-08-31T04:38:40.030Z,93.65
2018-08-31T04:40:00.958Z,92.60
2018-08-31T04:40:39.878Z,93.08
2018-08-31T04:41:39.870Z,93.65
2018-08-31T04:42:39.753Z,94.03
2018-08-31T04:43:39.686Z,95.36
2018-08-31T04:44:39.563Z,96.32
2018-08-31T04:46:00.474Z,96.89
2018-08-31T04:46:39.406Z,97.84
2018-08-31T04:47:39.338Z,98.32
2018-08-31T04:48:39.377Z,99.27
2018-08-31T04:49:39.213Z,99.94
2018-08-31T04:50:39.099Z,99.08
2018-08-31T04:52:00.166Z,99.37
2018-08-31T04:52:38.948Z,99.84
2018-08-31T04:53:38.872Z,99.65
2018-08-31T04:54:38.789Z,99.99
2018-08-31T04:55:38.739Z,99.99
2018-08-31T04:56:38.768Z,99.94
2018-08-31T04:57:59.550Z,99.75
2018-08-31T04:58:38.482Z,98.99
2018-08-31T04:59:38.409Z,98.51
2018-08-31T05:00:38.332Z,98.99
2018-08-31T05:01:38.362Z,99.08
2018-08-31T05:02:38.173Z,99.75
2018-08-31T05:03:59.071Z,99.75
2018-08-31T05:04:38.014Z,99.99
2018-08-31T05:05:37.939Z,99.99
2018-08-31T05:06:37.901Z,99.99
2018-08-31T05:07:37.785Z,99.99
2018-08-31T05:08:37.708Z,99.99
2018-08-31T05:09:58.613Z,99.99
2018-08-31T05:10:37.603Z,99.99
2018-08-31T05:11:37.476Z,99.99
2018-08-31T05:12:37.413Z,99.99
2018-08-31T05:13:37.315Z,99.99
2018-08-31T05:14:37.245Z,99.99
2018-08-31T05:15:58.158Z,99.99
2018-08-31T05:16:37.125Z,99.99
2018-08-31T05:17:37.007Z,99.99
2018-08-31T05:18:37.038Z,99.99
2018-08-31T05:19:36.852Z,99.99
2018-08-31T05:20:36.853Z,99.99
2018-08-31T05:21:57.686Z,99.99
2018-08-31T05:22:36.670Z,99.99
2018-08-31T05:23:36.562Z,99.99
2018-08-31T05:24:36.929Z,99.99
2018-08-31T05:25:36.526Z,99.99
2018-08-31T05:26:36.335Z,99.99
2018-08-31T05:27:57.208Z,99.99
2018-08-31T05:28:36.192Z,99.99
2018-08-31T05:29:36.078Z,99.99
2018-08-31T05:30:36.122Z,99.99
2018-08-31T05:31:35.920Z,99.99
2018-08-31T05:32:35.936Z,99.99
2018-08-31T05:33:56.807Z,99.99
2018-08-31T05:34:35.738Z,99.99
2018-08-31T05:35:35.607Z,99.99
2018-08-31T05:36:35.650Z,99.99
2018-08-31T05:37:35.447Z,99.99
2018-08-31T05:38:35.461Z,99.99
2018-08-31T05:39:56.290Z,99.99
2018-08-31T05:40:35.270Z,99.99
2018-08-31T05:41:35.157Z,99.99
2018-08-31T05:42:35.196Z,99.99
2018-08-31T05:43:35.006Z,99.99
2018-08-31T05:44:34.921Z,99.99
2018-08-31T05:45:55.887Z,99.99
2018-08-31T05:46:34.766Z,99.99
2018-08-31T05:47:34.702Z,99.99
2018-08-31T05:48:34.599Z,99.99
2018-08-31T05:49:34.613Z,99.99
2018-08-31T05:50:34.441Z,99.99
2018-08-31T05:51:55.352Z,99.99
2018-08-31T05:52:34.292Z,99.99
2018-08-31T05:53:34.365Z,99.99
2018-08-31T05:54:34.239Z,99.99
2018-08-31T05:55:34.071Z,99.99
2018-08-31T05:56:34.054Z,99.99
2018-08-31T05:57:54.893Z,99.99
2018-08-31T05:58:33.858Z,99.99
2018-08-31T05:59:33.762Z,99.99
2018-08-31T06:00:33.680Z,99.99
2018-08-31T06:01:33.671Z,99.99
2018-08-31T06:02:33.523Z,99.99
2018-08-31T06:03:55.230Z,99.99
2018-08-31T06:04:33.376Z,99.99
2018-08-31T06:05:33.306Z,99.99
2018-08-31T06:06:33.218Z,99.99
2018-08-31T06:07:33.294Z,99.99
2018-08-31T06:08:33.110Z,99.99
2018-08-31T06:09:53.963Z,99.99
2018-08-31T06:10:33.024Z,99.99
2018-08-31T06:11:32.813Z,99.99
2018-08-31T06:12:32.827Z,99.99
2018-08-31T06:13:32.667Z,99.99
2018-08-31T06:14:32.638Z,99.99
2018-08-31T06:15:53.489Z,99.99
2018-08-31T06:16:32.547Z,99.99
2018-08-31T06:17:32.358Z,99.99
2018-08-31T06:18:32.363Z,99.99
2018-08-31T06:19:32.200Z,99.99
2018-08-31T06:20:32.133Z,99.99
2018-08-31T06:21:53.208Z,99.99
2018-08-31T06:22:38.265Z,99.99
2018-08-31T06:23:32.245Z,99.99
2018-08-31T06:24:31.829Z,99.99
2018-08-31T06:25:31.747Z,99.99
2018-08-31T06:26:31.676Z,99.99
2018-08-31T06:27:52.652Z,99.99
2018-08-31T06:28:31.519Z,99.99
2018-08-31T06:29:32.365Z,99.99
2018-08-31T06:30:31.363Z,99.99
2018-08-31T06:31:31.373Z,99.99
2018-08-31T06:32:31.273Z,99.99
2018-08-31T06:33:52.120Z,99.99
2018-08-31T06:34:31.060Z,99.99
2018-08-31T06:35:30.984Z,99.99
2018-08-31T06:36:30.999Z,99.99
2018-08-31T06:37:32.011Z,99.99
2018-08-31T06:38:30.750Z,99.99
2018-08-31T06:39:51.701Z,99.99
2018-08-31T06:40:30.594Z,99.99
2018-08-31T06:41:30.516Z,99.99
2018-08-31T06:42:30.451Z,99.99
2018-08-31T06:43:30.645Z,99.99
2018-08-31T06:44:30.286Z,99.99
2018-08-31T06:45:51.203Z,99.99
2018-08-31T06:46:30.128Z,99.99
2018-08-31T06:47:30.041Z,99.99
2018-08-31T06:48:30.051Z,99.99
2018-08-31T06:49:29.902Z,99.99
2018-08-31T06:50:29.860Z,99.99
2018-08-31T06:51:50.726Z,99.99
2018-08-31T06:52:29.817Z,99.99
2018-08-31T06:53:29.586Z,99.99
2018-08-31T06:54:29.515Z,99.99
2018-08-31T06:55:29.441Z,99.99
2018-08-31T06:56:29.362Z,99.99
2018-08-31T06:57:50.271Z,99.99
2018-08-31T06:58:29.209Z,99.99
2018-08-31T06:59:29.131Z,99.99
2018-08-31T07:00:29.051Z,99.99
2018-08-31T07:01:28.972Z,99.99
2018-08-31T07:02:28.896Z,99.99
2018-08-31T07:03:49.880Z,99.99
2018-08-31T07:04:28.825Z,99.99
2018-08-31T07:05:28.668Z,99.99
2018-08-31T07:06:28.590Z,99.99
2018-08-31T07:07:29.051Z,99.99
2018-08-31T07:08:28.591Z,99.99
2018-08-31T07:09:49.344Z,99.99
2018-08-31T07:10:28.281Z,99.99
2018-08-31T07:11:28.207Z,99.99
2018-08-31T07:12:28.243Z,99.99
2018-08-31T07:13:28.055Z,99.99
2018-08-31T07:14:27.976Z,99.99
2018-08-31T07:15:48.937Z,99.99
2018-08-31T07:16:27.928Z,99.99
2018-08-31T07:17:27.790Z,99.99
2018-08-31T07:18:28.215Z,99.99
2018-08-31T07:19:27.831Z,99.99
2018-08-31T07:20:27.684Z,99.99
2018-08-31T07:21:48.991Z,99.99
2018-08-31T07:22:27.415Z,99.99
2018-08-31T07:23:27.707Z,99.99
2018-08-31T07:24:27.371Z,99.99
2018-08-31T07:25:27.142Z,99.99
2018-08-31T07:26:27.114Z,99.99
2018-08-31T07:27:47.964Z,99.99
2018-08-31T07:28:26.913Z,99.99
2018-08-31T07:29:26.835Z,99.48
2018-08-31T07:30:26.752Z,99.19
2018-08-31T07:31:26.682Z,98.66
2018-08-31T07:32:26.633Z,97.71
2018-08-31T07:33:47.509Z,99.99
2018-08-31T07:34:26.458Z,99.99
2018-08-31T07:35:26.373Z,99.99
2018-08-31T07:36:26.392Z,99.99
2018-08-31T07:37:26.220Z,99.99
2018-08-31T07:38:26.143Z,99.99
2018-08-31T07:39:47.043Z,99.71
2018-08-31T07:40:25.997Z,98.66
2018-08-31T07:41:25.916Z,97.99
2018-08-31T07:42:25.836Z,96.84
2018-08-31T07:43:25.756Z,96.42
2018-08-31T07:44:25.690Z,97.18
2018-08-31T07:45:46.591Z,96.22
2018-08-31T07:46:25.532Z,96.89
2018-08-31T07:47:25.461Z,97.37
2018-08-31T07:48:25.380Z,95.75
2018-08-31T07:49:25.363Z,95.17
2018-08-31T07:50:25.236Z,95.56
2018-08-31T07:51:46.145Z,95.12
2018-08-31T07:52:25.080Z,93.88
2018-08-31T07:53:24.997Z,93.12
2018-08-31T07:54:24.931Z,93.50
2018-08-31T07:55:24.849Z,92.63
2018-08-31T07:56:24.770Z,92.16
2018-08-31T07:57:45.781Z,91.82
2018-08-31T07:58:24.613Z,92.21
2018-08-31T07:59:24.593Z,91.05
2018-08-31T08:00:24.458Z,89.72
2018-08-31T08:01:24.395Z,90.09
2018-08-31T08:02:24.307Z,89.90
2018-08-31T08:03:45.301Z,89.90
2018-08-31T08:04:24.161Z,89.90
2018-08-31T08:05:24.138Z,89.52
2018-08-31T08:06:24.014Z,89.14
2018-08-31T08:07:24.321Z,88.85
2018-08-31T08:08:24.109Z,89.66
2018-08-31T08:09:44.944Z,89.57
2018-08-31T08:10:23.714Z,88.90
2018-08-31T08:11:23.648Z,89.09
2018-08-31T08:12:23.559Z,87.74
2018-08-31T08:13:23.557Z,87.55
2018-08-31T08:14:23.408Z,87.37
2018-08-31T08:15:44.365Z,87.74
2018-08-31T08:16:23.264Z,87.84
2018-08-31T08:17:23.285Z,86.41
2018-08-31T08:18:23.092Z,86.12
2018-08-31T08:19:23.085Z,86.88
2018-08-31T08:20:22.956Z,86.54
2018-08-31T08:21:43.885Z,86.02
2018-08-31T08:22:22.806Z,85.64
2018-08-31T08:23:22.811Z,84.44
2018-08-31T08:24:22.662Z,85.01
2018-08-31T08:25:22.620Z,84.88
2018-08-31T08:26:22.515Z,85.35
2018-08-31T08:27:43.526Z,85.68
2018-08-31T08:28:22.412Z,84.82
2018-08-31T08:29:22.333Z,84.91
2018-08-31T08:30:22.204Z,85.39
2018-08-31T08:31:22.135Z,84.53
2018-08-31T08:32:23.598Z,84.44
2018-08-31T08:33:43.048Z,84.63
2018-08-31T08:34:21.899Z,84.44
2018-08-31T08:35:21.960Z,84.44
2018-08-31T08:36:21.805Z,83.67
2018-08-31T08:37:21.672Z,83.76
2018-08-31T08:38:21.674Z,83.48
2018-08-31T08:39:42.507Z,84.44
2018-08-31T08:40:21.456Z,84.44
2018-08-31T08:41:21.382Z,83.95
2018-08-31T08:42:21.402Z,84.15
2018-08-31T08:43:21.221Z,83.58
2018-08-31T08:44:21.153Z,83.29
2018-08-31T08:45:42.063Z,83.19
2018-08-31T08:46:20.997Z,83.29
2018-08-31T08:47:20.925Z,83.58
2018-08-31T08:48:20.997Z,83.67
2018-08-31T08:49:20.777Z,83.00
2018-08-31T08:50:20.976Z,82.85
2018-08-31T08:51:41.697Z,82.75
2018-08-31T08:52:20.550Z,82.08
2018-08-31T08:53:20.551Z,82.18
2018-08-31T08:54:20.404Z,82.08
2018-08-31T08:55:20.333Z,82.27
2018-08-31T08:56:20.252Z,82.56
2018-08-31T08:57:41.707Z,82.27
2018-08-31T08:58:21.498Z,81.41
2018-08-31T08:59:20.037Z,81.89
2018-08-31T09:00:19.961Z,81.89
2018-08-31T09:01:19.880Z,82.65
2018-08-31T09:02:19.815Z,82.18
2018-08-31T09:03:41.070Z,81.51
2018-08-31T09:04:19.651Z,81.98
2018-08-31T09:05:19.588Z,82.08
2018-08-31T09:06:19.502Z,81.98
2018-08-31T09:07:19.513Z,81.51
2018-08-31T09:08:19.348Z,81.02
2018-08-31T09:09:40.267Z,80.64
2018-08-31T09:10:19.205Z,80.55
2018-08-31T09:11:19.128Z,80.55
2018-08-31T09:12:19.091Z,81.12
2018-08-31T09:13:19.049Z,80.55
2018-08-31T09:14:18.889Z,80.35
2018-08-31T09:15:39.810Z,80.35
2018-08-31T09:16:18.751Z,79.97
2018-08-31T09:17:18.684Z,80.49
2018-08-31T09:18:18.668Z,81.26
2018-08-31T09:19:18.534Z,82.51
2018-08-31T09:20:18.525Z,81.07
2018-08-31T09:21:39.366Z,80.58
2018-08-31T09:22:18.314Z,79.44
2018-08-31T09:23:18.289Z,79.14
2018-08-31T09:24:18.161Z,79.14
2018-08-31T09:25:18.081Z,79.34
2018-08-31T09:26:18.015Z,79.05
2018-08-31T09:27:39.008Z,78.86
2018-08-31T09:28:17.856Z,78.77
2018-08-31T09:29:17.787Z,79.34
2018-08-31T09:30:17.715Z,79.63
2018-08-31T09:31:17.638Z,79.38
2018-08-31T09:32:17.568Z,79.44
2018-08-31T09:33:38.594Z,78.57
2018-08-31T09:34:17.543Z,78.80
2018-08-31T09:35:17.490Z,78.70
2018-08-31T09:36:17.276Z,78.52
2018-08-31T09:37:17.226Z,78.52
2018-08-31T09:38:17.545Z,78.13
2018-08-31T09:39:38.636Z,77.75
2018-08-31T09:40:16.998Z,77.56
2018-08-31T09:41:17.123Z,77.94
2018-08-31T09:42:17.099Z,77.46
2018-08-31T09:43:16.858Z,77.65
2018-08-31T09:44:17.060Z,78.08
2018-08-31T09:45:38.021Z,77.78
2018-08-31T09:46:19.463Z,77.78
2018-08-31T09:47:16.487Z,76.34
2018-08-31T09:48:16.417Z,76.44
2018-08-31T09:49:16.295Z,76.34
2018-08-31T09:50:16.229Z,75.87
2018-08-31T09:51:37.143Z,76.06
2018-08-31T09:52:16.129Z,75.77
2018-08-31T09:53:16.002Z,75.29
2018-08-31T09:54:15.940Z,75.38
2018-08-31T09:55:15.852Z,75.77
2018-08-31T09:56:15.783Z,75.32
2018-08-31T09:57:36.693Z,75.48
2018-08-31T09:58:15.654Z,74.75
2018-08-31T09:59:15.599Z,74.43
2018-08-31T10:00:15.490Z,76.06
2018-08-31T10:01:15.417Z,75.87
2018-08-31T10:02:15.342Z,75.42
2018-08-31T10:03:36.291Z,75.20
2018-08-31T10:04:15.293Z,75.52
2018-08-31T10:05:15.124Z,75.20
2018-08-31T10:06:15.106Z,75.42
2018-08-31T10:07:14.982Z,75.32
2018-08-31T10:08:14.903Z,76.00
2018-08-31T10:09:35.801Z,75.23
2018-08-31T10:10:14.816Z,74.85
2018-08-31T10:11:14.678Z,74.37
2018-08-31T10:12:14.628Z,73.02
2018-08-31T10:13:14.527Z,73.02
2018-08-31T10:14:14.541Z,73.31
2018-08-31T10:15:35.363Z,73.11
2018-08-31T10:16:14.342Z,73.50
2018-08-31T10:17:14.231Z,73.98
2018-08-31T10:18:14.254Z,74.46
2018-08-31T10:19:14.076Z,73.98
2018-08-31T10:20:14.066Z,73.21
2018-08-31T10:21:34.907Z,73.60
2018-08-31T10:22:13.881Z,73.88
2018-08-31T10:23:13.784Z,73.79
2018-08-31T10:24:13.795Z,74.17
2018-08-31T10:25:13.631Z,73.21
2018-08-31T10:26:13.645Z,73.25
2018-08-31T10:27:34.474Z,72.86
2018-08-31T10:28:13.504Z,72.38
2018-08-31T10:29:13.342Z,72.38
2018-08-31T10:30:15.427Z,72.19
2018-08-31T10:31:13.207Z,73.06
2018-08-31T10:32:14.148Z,73.25
2018-08-31T10:33:34.044Z,72.86
2018-08-31T10:34:13.031Z,72.48
2018-08-31T10:35:12.902Z,72.09
2018-08-31T10:36:12.945Z,72.19
2018-08-31T10:37:12.754Z,72.38
2018-08-31T10:38:12.763Z,72.96
2018-08-31T10:39:33.593Z,72.29
2018-08-31T10:40:12.579Z,71.61
2018-08-31T10:41:12.567Z,72.09
2018-08-31T10:42:12.400Z,71.61
2018-08-31T10:43:12.379Z,71.61
2018-08-31T10:44:12.253Z,71.17
2018-08-31T10:45:33.181Z,70.94
2018-08-31T10:46:12.092Z,71.26
2018-08-31T10:47:12.036Z,71.33
2018-08-31T10:48:12.006Z,71.14
2018-08-31T10:49:11.886Z,70.65
2018-08-31T10:50:11.917Z,71.55
2018-08-31T10:51:32.726Z,70.84
2018-08-31T10:52:11.719Z,70.37
2018-08-31T10:53:11.578Z,70.07
2018-08-31T10:54:11.521Z,70.78
2018-08-31T10:55:11.532Z,71.04
2018-08-31T10:56:11.367Z,70.88
2018-08-31T10:57:32.333Z,70.88
2018-08-31T10:58:11.218Z,71.33
2018-08-31T10:59:11.256Z,71.84
2018-08-31T11:00:11.127Z,71.26
2018-08-31T11:01:11.060Z,71.26
2018-08-31T11:02:10.920Z,70.50
2018-08-31T11:03:31.906Z,69.73
2018-08-31T11:04:10.780Z,70.11
2018-08-31T11:05:10.792Z,70.01
2018-08-31T11:06:10.638Z,69.92
2018-08-31T11:07:10.593Z,70.11
2018-08-31T11:08:10.485Z,69.82
2018-08-31T11:09:31.496Z,69.76
2018-08-31T11:10:10.397Z,69.92
2018-08-31T11:11:10.311Z,69.47
2018-08-31T11:12:10.199Z,69.06
2018-08-31T11:13:10.246Z,69.67
2018-08-31T11:14:10.065Z,69.47
2018-08-31T11:15:31.023Z,69.53
2018-08-31T11:16:09.917Z,69.95
2018-08-31T11:17:09.844Z,70.24
2018-08-31T11:18:09.846Z,70.05
2018-08-31T11:19:10.028Z,69.18
2018-08-31T11:20:09.626Z,69.18
2018-08-31T11:21:30.560Z,69.38
2018-08-31T11:22:09.580Z,69.38
2018-08-31T11:23:09.551Z,68.99
2018-08-31T11:24:09.334Z,68.22
2018-08-31T11:25:09.283Z,68.51
2018-08-31T11:26:09.187Z,68.80
2018-08-31T11:27:30.185Z,68.03
2018-08-31T11:28:09.027Z,68.13
2018-08-31T11:29:09.087Z,68.51
2018-08-31T11:30:08.891Z,67.93
2018-08-31T11:31:08.911Z,68.13
2018-08-31T11:32:08.763Z,68.51
2018-08-31T11:33:29.664Z,68.60
2018-08-31T11:34:08.604Z,68.03
2018-08-31T11:35:08.624Z,68.60
2018-08-31T11:36:08.456Z,69.06
2018-08-31T11:37:08.437Z,69.73
2018-08-31T11:38:08.306Z,70.01
2018-08-31T11:39:29.244Z,70.30
2018-08-31T11:40:08.168Z,70.01
2018-08-31T11:41:08.080Z,69.82
2018-08-31T11:42:08.023Z,70.21
2018-08-31T11:43:07.962Z,70.34
2018-08-31T11:44:07.872Z,70.24
2018-08-31T11:45:28.864Z,70.34
2018-08-31T11:46:07.756Z,68.99
2018-08-31T11:47:07.698Z,68.32
2018-08-31T11:48:07.579Z,68.03
2018-08-31T11:49:07.606Z,67.93
2018-08-31T11:50:07.442Z,68.13
2018-08-31T11:51:28.428Z,68.51
2018-08-31T11:52:07.280Z,68.90
2018-08-31T11:53:07.224Z,68.99
2018-08-31T11:54:07.222Z,68.41
2018-08-31T11:55:07.121Z,68.90
2018-08-31T11:56:07.028Z,69.85
2018-08-31T11:57:28.030Z,69.67
2018-08-31T11:58:06.850Z,69.09
2018-08-31T11:59:06.861Z,69.28
2018-08-31T12:00:06.709Z,68.99
2018-08-31T12:01:06.704Z,69.24
2018-08-31T12:02:06.681Z,69.85
2018-08-31T12:03:27.556Z,69.76
2018-08-31T12:04:06.414Z,69.76
2018-08-31T12:05:06.373Z,69.76
2018-08-31T12:06:06.276Z,69.76
2018-08-31T12:07:06.288Z,68.99
2018-08-31T12:08:06.130Z,68.90
2018-08-31T12:09:27.081Z,69.57
2018-08-31T12:10:05.990Z,69.95
2018-08-31T12:11:06.000Z,68.99
2018-08-31T12:12:05.844Z,69.28
2018-08-31T12:13:05.862Z,70.15
2018-08-31T12:14:05.692Z,69.67
2018-08-31T12:15:26.715Z,69.67
2018-08-31T12:16:05.550Z,70.72
2018-08-31T12:17:05.477Z,71.01
2018-08-31T12:18:05.438Z,70.82
2018-08-31T12:19:05.323Z,69.57
2018-08-31T12:20:05.259Z,69.73
2018-08-31T12:21:26.173Z,69.63
2018-08-31T12:22:05.157Z,69.73
2018-08-31T12:23:05.042Z,70.50
2018-08-31T12:24:05.203Z,70.40
2018-08-31T12:25:04.893Z,70.21
2018-08-31T12:26:04.876Z,70.50
2018-08-31T12:27:25.828Z,71.17
2018-08-31T12:28:04.788Z,71.55
2018-08-31T12:29:04.614Z,71.84
2018-08-31T12:30:04.599Z,70.78
2018-08-31T12:31:04.464Z,70.78
2018-08-31T12:32:04.401Z,71.26
2018-08-31T12:33:25.289Z,70.98
2018-08-31T12:34:04.317Z,70.88
2018-08-31T12:35:04.179Z,71.17
2018-08-31T12:36:04.186Z,71.46
2018-08-31T12:37:04.020Z,71.36
2018-08-31T12:38:04.050Z,71.17
2018-08-31T12:39:24.863Z,71.08
2018-08-31T12:40:03.843Z,71.08
2018-08-31T12:41:03.743Z,71.46
2018-08-31T12:42:03.751Z,71.08
2018-08-31T12:43:03.582Z,70.98
2018-08-31T12:44:03.541Z,71.36
2018-08-31T12:45:24.451Z,70.98
2018-08-31T12:46:03.477Z,70.88
2018-08-31T12:47:03.308Z,71.04
2018-08-31T12:48:03.227Z,70.78
2018-08-31T12:49:03.169Z,71.26
2018-08-31T12:50:03.104Z,71.46
2018-08-31T12:51:24.010Z,71.94